Latest Weather Observations for Cocos Island

IDW60801

Issued at 3:53 am WST Tuesday 24 September 2019 (issued every 10 minutes, with the page automatically refreshed every 10 minutes)

About weather observations | Map of weather stations | Latest weather observations for WA | Other Formats
Station Details ID: 200284 Name: COCOS ISLAND AIRPORT Lat: -12.19 Lon: 96.83 Height: 3.0 m
Data from the previous 72 hours. | See also: Recent months at Cocos Island
Date/Time
WST
Temp
°C
App
Temp
°C
Dew
Point
°C
Rel
Hum
%
Delta-T
°C
Wind Press
QNH
hPa
Press
MSL
hPa
Rain since
9am
mm
Dir  Spd
km/h
Gust
km/h
Spd
kts
Gust
kts
24/03:30am 25.5 25.4 22.2 82 2.2 E 26 33 14 18 1013.4 1013.4 0.0
24/03:00am 25.5 25.4 22.2 82 2.2 E 26 32 14 17 1013.6 1013.6 0.0
24/02:30am 25.5 25.0 22.2 82 2.2 E 28 35 15 19 1013.6 1013.9 0.0
24/02:00am 25.5 25.7 22.0 81 2.3 E 24 33 13 18 1014.2 1014.2 0.0
24/01:30am 25.5 24.1 22.0 81 2.3 E 32 37 17 20 1014.2 1014.5 0.0
24/01:00am 25.6 24.9 22.5 83 2.1 E 30 35 16 19 1014.8 1014.8 0.0
24/12:30am 25.6 26.8 22.5 83 2.1 E 20 28 11 15 1014.8 1014.9 0.0
24/12:00am 25.5 26.5 21.8 80 2.5 E 19 30 10 16 1015.0 1015.0 0.0
 
Date/Time
WST
Temp
°C
App
Temp
°C
Dew
Point
°C
Rel
Hum
%
Delta-T
°C
Wind Press
QNH
hPa
Press
MSL
hPa
Rain since
9am
mm
Dir  Spd
km/h
Gust
km/h
Spd
kts
Gust
kts
23/11:30pm 25.5 27.3 21.8 80 2.5 ESE 15 24 8 13 1015.0 1015.2 0.0
23/11:00pm 25.5 26.9 21.8 80 2.5 ESE 17 24 9 13 1015.3 1015.3 0.0
23/10:37pm 25.4 27.6 21.9 81 2.3 ESE 13 22 7 12 1015.2 1015.2 0.0
23/10:30pm 25.5 26.9 21.8 80 2.5 ESE 17 22 9 12 1015.3 1015.1 0.0
23/10:07pm 25.4 27.6 21.9 81 2.3 ESE 13 22 7 12 1015.2 - 0.0
23/10:00pm 25.2 27.2 21.5 80 2.5 ESE 13 20 7 11 1014.9 1014.9 0.0
23/09:37pm 24.7 25.1 21.0 80 2.4 SSE 20 30 11 16 1014.8 1014.8 0.0
23/09:30pm 25.2 25.5 21.5 80 2.5 ESE 22 30 12 16 1014.9 1014.7 0.0
23/09:20pm 25.3 26.4 21.2 78 2.7 ESE 17 24 9 13 1014.8 1014.8 0.0
23/09:07pm 24.7 25.1 21.0 80 2.4 SSE 20 30 11 16 1014.8 - 0.0
23/09:01pm 25.4 25.9 20.9 76 3.0 ESE 19 28 10 15 1014.7 1014.7 0.0
23/09:00pm 25.4 25.8 20.9 76 3.0 ESE 20 30 11 16 1014.7 1014.7 0.0
23/08:51pm 25.3 26.6 21.6 80 2.5 ESE 17 24 9 13 1014.8 - 0.0
23/08:31pm 25.4 25.9 20.9 76 3.0 ESE 19 28 10 15 1014.7 - 0.0
23/08:30pm 25.4 25.8 20.9 76 3.0 ESE 20 28 11 15 1014.7 1014.4 0.0
23/08:00pm 25.6 26.5 20.8 75 3.2 ESE 17 26 9 14 1014.1 1014.1 0.0
23/07:30pm 25.6 26.1 20.8 75 3.2 ESE 19 26 10 14 1014.1 1013.7 0.0
23/07:00pm 25.9 26.7 20.7 73 3.4 ESE 17 26 9 14 1013.3 1013.3 0.0
23/06:30pm 25.9 26.3 20.7 73 3.4 ESE 19 28 10 15 1013.3 1012.9 0.0
23/06:00pm 26.5 26.4 19.9 67 4.3 ESE 20 28 11 15 1012.6 1012.6 0.0
23/05:30pm 26.5 26.9 19.9 67 4.3 ESE 17 26 9 14 1012.6 1012.6 0.0
23/05:00pm 27.1 27.3 20.2 66 4.5 ESE 19 30 10 16 1012.7 1012.7 0.0
23/04:30pm 27.1 27.1 20.2 66 4.5 E 20 30 11 16 1012.7 1012.7 0.0
23/04:00pm 27.3 26.3 19.6 62 5.0 E 24 30 13 16 1012.8 1012.8 0.0
23/03:30pm 27.3 27.0 19.6 62 5.0 ESE 20 30 11 16 1012.8 1012.7 0.0
23/03:00pm 27.6 27.0 20.4 65 4.7 E 24 33 13 18 1012.9 1012.9 0.0
23/02:30pm 27.6 27.7 20.4 65 4.7 ESE 20 30 11 16 1012.9 1013.1 0.0
23/02:00pm 27.7 26.5 20.0 63 5.0 E 26 33 14 18 1013.4 1013.4 0.0
23/01:30pm 27.7 26.9 20.0 63 5.0 E 24 32 13 17 1013.4 1013.7 0.0
23/01:00pm 27.4 25.1 18.4 58 5.7 E 28 32 15 17 1014.3 1014.3 0.0
23/12:30pm 27.4 25.4 18.4 58 5.7 E 26 32 14 17 1014.3 1014.7 0.0
23/12:00pm 27.5 26.1 19.6 62 5.1 E 26 30 14 16 1014.8 1014.8 0.0
23/11:30am 27.5 25.3 19.6 62 5.1 E 30 35 16 19 1014.8 1015.1 0.0
23/11:00am 26.7 24.9 20.3 68 4.2 E 30 33 16 18 1015.3 1015.3 -
23/10:30am 26.7 24.9 20.3 68 4.2 E 30 33 16 18 1015.3 - -
23/10:00am 26.0 23.8 19.6 68 4.1 E 30 35 16 19 1015.6 1015.6 1.0
23/09:30am 25.6 23.1 19.7 70 3.8 E 32 35 17 19 1015.5 1015.5 1.0
23/09:00am 25.1 24.0 19.5 71 3.6 E 24 32 13 17 1015.2 1015.2 1.0
23/08:30am 25.1 23.6 19.5 71 3.6 E 26 32 14 17 1015.2 1014.9 1.0
23/08:00am 24.3 23.0 19.1 73 3.3 E 24 30 13 16 1014.6 1014.6 1.0
23/07:30am 24.3 23.8 19.1 73 3.3 E 20 28 11 15 1014.6 1014.3 1.0
23/07:00am 23.9 24.1 19.4 76 2.9 E 17 26 9 14 1014.1 1014.1 1.0
23/06:30am 23.9 23.2 19.4 76 2.9 E 22 30 12 16 1014.1 1013.9 1.0
23/06:00am 24.0 24.3 19.5 76 2.9 E 17 24 9 13 1013.6 1013.6 1.0
23/05:30am 24.0 23.7 19.5 76 2.9 E 20 28 11 15 1013.6 1013.5 1.0
23/05:00am 24.3 24.1 19.4 74 3.1 E 19 32 10 17 1013.3 1013.3 1.0
23/04:30am 24.3 23.2 19.4 74 3.1 E 24 35 13 19 1013.3 1013.6 1.0
23/04:00am 24.4 24.0 18.8 71 3.6 ESE 19 28 10 15 1014.0 1014.0 1.0
23/03:30am 24.4 23.4 18.8 71 3.6 ESE 22 32 12 17 1014.0 1014.0 1.0
23/03:00am 24.6 24.6 19.7 74 3.2 ESE 19 28 10 15 1014.2 1014.2 1.0
23/02:30am 24.6 24.4 19.7 74 3.2 ESE 20 33 11 18 1014.2 1014.5 1.0
23/02:00am 24.8 23.8 19.6 73 3.3 ESE 24 35 13 19 1014.8 1014.8 1.0
23/01:30am 24.8 24.5 19.6 73 3.3 ESE 20 30 11 16 1014.8 1015.1 1.0
23/01:00am 24.8 24.9 20.3 76 2.9 ESE 20 30 11 16 1015.3 1015.3 1.0
23/12:30am 24.8 23.7 20.3 76 2.9 ESE 26 33 14 18 1015.3 1015.5 1.0
23/12:00am 24.8 23.2 20.1 75 3.0 SE 28 37 15 20 1015.6 1015.6 1.0
 
Date/Time
WST
Temp
°C
App
Temp
°C
Dew
Point
°C
Rel
Hum
%
Delta-T
°C
Wind Press
QNH
hPa
Press
MSL
hPa
Rain since
9am
mm
Dir  Spd
km/h
Gust
km/h
Spd
kts
Gust
kts
22/11:30pm 24.8 23.6 20.1 75 3.0 ESE 26 35 14 19 1015.6 1015.7 1.0
22/11:00pm 25.0 23.2 19.6 72 3.5 ESE 28 37 15 20 1015.7 1015.7 1.0
22/10:30pm 25.0 24.0 19.6 72 3.5 ESE 24 39 13 21 1015.7 1015.8 1.0
22/10:00pm 25.0 24.3 19.6 72 3.5 ESE 22 37 12 20 1015.5 1015.5 1.0
22/09:56pm 25.0 24.7 19.6 72 3.5 ESE 20 32 11 17 1015.4 1015.4 1.0
22/09:37pm 25.1 24.9 19.7 72 3.5 ESE 20 30 11 16 1015.3 1015.3 1.0
22/09:32pm 25.0 24.5 19.1 70 3.8 ESE 20 32 11 17 1015.3 1015.3 1.0
22/09:30pm 25.0 24.7 19.6 72 3.5 ESE 20 32 11 17 1015.5 1015.2 1.0
22/09:26pm 25.0 24.7 19.6 72 3.5 ESE 20 32 11 17 1015.4 - 1.0
22/09:13pm 25.1 24.4 19.5 71 3.6 ESE 22 33 12 18 1015.0 1015.0 1.0
22/09:07pm 25.1 24.9 19.7 72 3.5 ESE 20 30 11 16 1015.3 - 1.0
22/09:02pm 25.0 24.5 19.1 70 3.8 ESE 20 32 11 17 1015.3 - 1.0
22/09:00pm 25.0 23.9 19.4 71 3.6 ESE 24 35 13 19 1014.9 1014.9 1.0
22/08:43pm 25.1 24.4 19.5 71 3.6 ESE 22 33 12 18 1015.0 - 1.0
22/08:30pm 25.0 24.3 19.4 71 3.6 ESE 22 33 12 18 1014.9 1014.5 1.0
22/08:00pm 25.1 24.5 19.7 72 3.5 ESE 22 35 12 19 1014.2 1014.2 1.0
22/07:30pm 25.1 24.1 19.7 72 3.5 ESE 24 35 13 19 1014.2 1013.8 1.0
22/07:00pm 25.4 24.1 19.8 71 3.6 ESE 26 37 14 20 1013.4 1013.4 1.0
22/06:30pm 25.4 24.8 19.8 71 3.6 ESE 22 35 12 19 1013.4 1013.2 1.0
22/06:00pm 26.0 25.3 20.3 71 3.7 ESE 24 44 13 24 1013.1 1013.1 1.0
22/05:30pm 26.0 24.9 20.3 71 3.7 ESE 26 41 14 22 1013.1 1012.9 1.0
22/05:00pm 26.2 25.7 20.8 72 3.6 ESE 24 35 13 19 1012.9 1012.9 1.0
22/04:30pm 26.2 26.1 20.7 71 3.6 ESE 22 37 12 20 1012.9 1013.2 1.0
22/04:00pm 24.4 22.6 21.1 82 2.2 E 32 44 17 24 1013.2 1013.2 1.0
22/03:40pm 24.1 23.0 21.0 83 2.0 ESE 28 43 15 23 1013.3 1013.3 0.6
22/03:32pm 24.3 22.5 21.2 83 2.0 ESE 32 50 17 27 1013.4 1013.4 0.6
22/03:31pm 24.6 22.7 21.3 82 2.2 E 33 44 18 24 1013.2 - 1.0
22/03:30pm 24.4 22.4 21.1 82 2.2 ESE 33 50 18 27 1013.2 1013.4 1.0
22/03:29pm 24.7 23.0 21.4 82 2.2 ESE 32 50 17 27 1013.4 1013.4 0.6
22/03:25pm 25.4 24.0 20.4 74 3.3 E 28 44 15 24 1013.4 1013.4 0.6
22/03:10pm 24.1 23.0 21.0 83 2.0 ESE 28 43 15 23 1013.3 - 0.6
22/03:03pm 24.3 22.4 21.0 82 2.2 ESE 32 50 17 27 1013.4 - 0.6
22/03:00pm 24.9 21.8 20.4 76 2.9 E 37 46 20 25 1013.7 1013.7 0.6
22/02:55pm 25.4 23.2 20.4 74 3.3 ESE 32 44 17 24 1013.4 - 0.6
22/02:39pm 24.9 24.9 21.6 82 2.2 E 24 33 13 18 1013.8 1013.8 0.6
22/02:30pm 24.9 25.2 20.4 76 2.9 E 19 28 10 15 1013.7 1014.1 0.6
22/02:19pm 24.3 23.3 21.2 83 2.0 E 28 39 15 21 1014.4 1014.4 0.4
22/02:09pm 24.9 24.9 21.6 82 2.2 E 24 33 13 18 1013.8 - 0.6
22/02:00pm 25.7 26.8 20.5 73 3.4 ESE 15 24 8 13 1014.4 1014.4 0.2
22/01:49pm 24.3 22.5 21.2 83 2.0 E 32 39 17 21 1014.4 - 0.4
22/01:30pm 25.7 25.9 20.5 73 3.4 ESE 20 26 11 14 1014.4 1014.8 0.2
22/01:00pm 23.7 22.4 20.6 83 2.0 ESE 28 48 15 26 1015.6 1015.6 0.2
22/12:57pm 24.0 23.4 20.5 81 2.3 ESE 24 48 13 26 1015.6 1015.6 0.2
22/12:51pm 24.6 25.7 20.5 78 2.7 ESE 15 24 8 13 1015.7 1015.7 0.2
22/12:30pm 23.7 22.4 20.6 83 2.0 ESE 28 46 15 25 1015.6 1016.1 0.2
22/12:23pm 22.5 20.3 20.4 88 1.4 ESE 32 46 17 25 1016.1 1016.1 0.2
22/12:21pm 24.6 25.7 20.5 78 2.7 ESE 15 24 8 13 1015.7 - 0.2
22/12:00pm 24.9 23.8 21.0 79 2.6 ESE 28 43 15 23 1016.1 1016.2 0.2
22/11:53am 22.5 20.3 20.4 88 1.4 ESE 32 46 17 25 1016.1 - 0.2
22/11:30am 24.9 24.2 21.0 79 2.6 ESE 26 37 14 20 1016.2 1016.3 0.2
22/11:10am 24.9 24.0 21.4 81 2.3 ESE 28 46 15 25 1016.4 1016.4 0.0
22/11:00am 25.1 24.0 21.0 78 2.7 ESE 28 43 15 23 1016.3 1016.3 1.4
22/10:42am 25.1 24.3 21.6 81 2.3 ESE 28 46 15 25 1016.4 - 0.2
22/10:30am 25.1 24.7 21.0 78 2.7 ESE 24 41 13 22 1016.3 1016.3 1.4
22/10:00am 24.5 24.0 20.8 80 2.4 ESE 24 41 13 22 1016.3 1016.3 1.4
22/09:30am 24.5 24.0 20.8 80 2.4 ESE 24 35 13 19 1016.3 1016.3 1.4
22/09:00am 24.8 25.2 20.9 79 2.6 ESE 20 37 11 20 1016.0 1016.0 1.4
22/08:30am 24.8 24.4 20.9 79 2.6 ESE 24 39 13 21 1016.0 1015.7 1.4
22/08:00am 24.6 24.8 20.5 78 2.7 ESE 20 32 11 17 1015.4 1015.4 1.4
22/07:30am 24.6 24.9 20.5 78 2.7 ESE 19 28 10 15 1015.4 1015.0 1.4
22/07:00am 24.3 24.4 20.0 77 2.8 ESE 19 30 10 16 1014.8 1014.8 1.4
22/06:30am 24.3 24.4 20.0 77 2.8 ESE 19 28 10 15 1014.8 1014.7 1.4
22/06:00am 24.4 25.3 20.9 81 2.3 E 17 26 9 14 1014.4 1014.4 1.4
22/05:30am 24.4 24.8 20.9 81 2.3 ESE 20 30 11 16 1014.4 1014.0 1.4
22/05:00am 24.4 25.1 20.5 79 2.5 ESE 17 28 9 15 1013.9 1013.9 1.4
22/04:30am 24.4 24.6 20.5 79 2.5 ESE 20 32 11 17 1013.9 1014.2 1.4
22/04:00am 24.5 23.8 20.2 77 2.8 ESE 24 35 13 19 1014.3 1014.3 1.4
22/03:30am 24.5 23.0 20.2 77 2.8 ESE 28 37 15 20 1014.3 1014.6 1.4
22/03:00am 24.7 24.5 20.6 78 2.7 ESE 22 32 12 17 1014.7 1014.7 1.4
22/02:30am 24.7 23.4 20.6 78 2.7 ESE 28 39 15 21 1014.7 1015.0 1.4
22/02:00am 24.7 23.8 20.6 78 2.7 ESE 26 39 14 21 1015.2 1015.2 1.4
22/01:30am 24.7 23.8 20.6 78 2.7 ESE 26 39 14 21 1015.2 1015.5 1.4
22/01:00am 24.9 23.4 21.0 79 2.6 ESE 30 37 16 20 1015.7 1015.7 1.4
22/12:30am 24.9 24.9 21.0 79 2.6 ESE 22 39 12 21 1015.7 1015.9 1.4
22/12:00am 25.4 25.8 20.6 75 3.1 ESE 19 30 10 16 1016.1 1016.1 0.0
 
Date/Time
WST
Temp
°C
App
Temp
°C
Dew
Point
°C
Rel
Hum
%
Delta-T
°C
Wind Press
QNH
hPa
Press
MSL
hPa
Rain since
9am
mm
Dir  Spd
km/h
Gust
km/h
Spd
kts
Gust
kts
21/11:30pm 25.4 25.8 20.6 75 3.1 ESE 19 26 10 14 1016.1 1016.2 0.0
21/11:00pm 25.6 25.8 20.6 74 3.3 ESE 20 33 11 18 1016.1 1016.1 0.0
21/10:30pm 25.6 26.0 20.6 74 3.3 ESE 19 30 10 16 1016.1 1015.9 0.0
21/10:00pm 25.3 25.4 20.3 74 3.3 ESE 20 32 11 17 1015.7 1015.7 0.0
21/09:30pm 25.3 25.6 20.3 74 3.3 ESE 19 30 10 16 1015.7 1015.3 0.0
21/09:00pm 25.5 25.9 21.0 76 3.0 ESE 20 35 11 19 1015.0 1015.0 0.0
21/08:30pm 25.5 25.9 21.0 76 3.0 ESE 20 35 11 19 1015.0 1014.7 0.0
21/08:00pm 25.7 26.1 20.9 75 3.2 ESE 20 35 11 19 1014.2 1014.2 0.0
21/07:30pm 25.7 25.7 20.9 75 3.2 ESE 22 39 12 21 1014.2 1014.1 0.0
21/07:00pm 26.0 26.3 20.8 73 3.4 ESE 20 39 11 21 1013.6 1013.6 0.0
21/06:30pm 26.0 24.8 20.8 73 3.4 E 28 44 15 24 1013.6 1013.6 0.0
21/06:00pm 26.7 26.2 20.8 70 3.9 ESE 24 41 13 22 1013.3 1013.3 0.0
21/05:30pm 26.7 25.5 20.8 70 3.9 ESE 28 39 15 21 1013.3 1013.3 0.0
21/05:00pm 27.1 26.6 20.7 68 4.2 ESE 24 37 13 20 1013.3 1013.3 0.0
21/04:30pm 27.1 26.6 20.7 68 4.2 ESE 24 39 13 21 1013.3 1013.3 0.0
21/04:00pm 27.4 26.9 20.7 67 4.4 ESE 24 39 13 21 1013.4 1013.4 0.0
21/03:30pm 27.4 26.9 20.7 67 4.4 ESE 24 37 13 20 1013.4 1013.7 0.0
21/03:00pm 27.8 27.2 21.3 67 4.3 ESE 26 39 14 21 1014.0 1014.0 0.0
21/02:30pm 27.8 27.2 21.3 67 4.3 ESE 26 39 14 21 1014.0 1014.2 0.0
21/02:00pm 27.6 26.8 20.9 67 4.4 ESE 26 37 14 20 1014.5 1014.5 0.0
21/01:30pm 27.6 26.1 20.9 67 4.4 E 30 41 16 22 1014.5 1014.8 0.0
21/01:12pm 27.1 25.6 20.2 66 4.5 ESE 28 46 15 25 1015.0 1015.0 0.0
21/01:00pm 27.2 26.5 21.0 69 4.1 E 26 39 14 21 1015.1 1015.1 0.0
21/12:42pm 27.1 25.6 20.2 66 4.5 E 28 46 15 25 1015.0 - 0.0
21/12:30pm 27.2 26.5 21.0 69 4.1 ESE 26 37 14 20 1015.1 1015.6 0.0
21/12:00pm 26.9 26.7 21.2 71 3.8 ESE 24 37 13 20 1015.9 1015.9 0.0
21/11:30am 26.9 27.0 21.2 71 3.8 ESE 22 35 12 19 1015.9 1016.2 0.0
21/11:00am 26.5 26.1 21.0 72 3.6 ESE 24 39 13 21 1016.2 1016.2 -
21/10:30am 26.5 26.1 21.0 72 3.6 ESE 24 39 13 21 1016.2 1016.1 -
21/10:00am 26.5 26.8 20.8 71 3.7 ESE 20 33 11 18 1016.0 1016.0 -
21/09:30am 26.5 26.8 20.8 71 3.8 ESE 20 30 11 16 1016.0 1015.8 -
21/09:00am 25.6 25.1 20.8 75 3.2 E 24 35 13 19 1015.5 1015.5 -
21/08:30am 25.6 25.1 20.8 75 3.2 E 24 33 13 18 1015.5 1015.1 -
21/08:00am 25.0 24.6 20.9 78 2.7 E 24 37 13 20 1014.9 1014.9 -
21/07:30am 25.0 25.0 20.9 78 2.7 E 22 35 12 19 1014.9 1014.7 -
21/07:00am 24.8 25.4 21.1 80 2.4 ESE 19 28 10 15 1014.4 1014.4 -
21/06:30am 24.8 25.8 21.1 80 2.4 ESE 17 32 9 17 1014.4 1014.3 -
21/06:00am 24.8 25.8 21.1 80 2.4 ESE 17 30 9 16 1014.2 1014.2 -
21/05:30am 24.8 25.4 21.1 80 2.4 ESE 19 32 10 17 1014.2 1014.1 -

Other formats

Comma delimited format used in spreadsheet applications
http://www.bom.gov.au/fwo/IDW60801/IDW60801.96996.axf

JavaScript Object Notation format (JSON) in row-major order
http://www.bom.gov.au/fwo/IDW60801/IDW60801.96996.json

Data quality

Most of these data are generated automatically and are frequently updated. Quality checks on data are not normally performed. It is possible for incorrect values to appear. Refer to information at About Latest Weather Observations and please check the disclaimer before using these data.